Penhold, Canada
Current Conditions -  °F | °C
As of 6:00 AM on Wednesday 22 Oct 2014 (Local Time) from CYQF Reporting Station
Clear Clear  
Wind Chill: 27°   Ceiling: Unl
Heat Index: 27°   Visibility: 15mi
Dew Point: 23°   Wind: 3mph
Humidity: 86%   Direction: 170°S
Pressure: 29.73"   Gusts: NA
Location:  52.13°N, 113.87°W
Report Text: CYQF 221200Z 17003KT 15SM SKC M03/M05 A2973 RMK SLP095
Loading
Personal Weather Stations






























Interactive Weather Map
Tropical Storm Tracking
New forecast layout! Learn more

10-Day Weather Forecast

Advertisements
Track Severe Weather on mobile